sensor_id;sensor_type;location;lat;lon;timestamp;pressure;altitude;pressure_sealevel;temperature;humidity
21566;BME280;10943;48.738;9.320;2022-12-18T00:01:32;100026.91;;;-4.84;62.33
21566;BME280;10943;48.738;9.320;2022-12-18T00:04:07;100014.47;;;-4.87;62.42
21566;BME280;10943;48.738;9.320;2022-12-18T00:06:40;100024.69;;;-4.66;62.14
21566;BME280;10943;48.738;9.320;2022-12-18T00:09:09;100035.25;;;-4.50;61.22
21566;BME280;10943;48.738;9.320;2022-12-18T00:11:36;100043.59;;;-4.29;60.39
21566;BME280;10943;48.738;9.320;2022-12-18T00:14:04;100037.22;;;-4.17;59.89
21566;BME280;10943;48.738;9.320;2022-12-18T00:16:32;100029.47;;;-4.21;59.98
21566;BME280;10943;48.738;9.320;2022-12-18T00:19:03;100031.25;;;-4.33;60.21
21566;BME280;10943;48.738;9.320;2022-12-18T00:21:33;100032.25;;;-4.34;60.34
21566;BME280;10943;48.738;9.320;2022-12-18T00:24:01;100038.84;;;-4.62;61.08
21566;BME280;10943;48.738;9.320;2022-12-18T00:26:32;100042.19;;;-4.35;60.87
21566;BME280;10943;48.738;9.320;2022-12-18T00:29:11;100050.66;;;-4.15;59.43
21566;BME280;10943;48.738;9.320;2022-12-18T00:31:43;100037.78;;;-4.24;59.54
21566;BME280;10943;48.738;9.320;2022-12-18T00:34:13;100040.34;;;-4.34;60.04
21566;BME280;10943;48.738;9.320;2022-12-18T00:36:41;100040.88;;;-4.29;59.66
21566;BME280;10943;48.738;9.320;2022-12-18T00:39:11;100029.59;;;-4.47;60.26
21566;BME280;10943;48.738;9.320;2022-12-18T00:41:39;100046.34;;;-4.18;58.96
21566;BME280;10943;48.738;9.320;2022-12-18T00:44:26;100046.34;;;-4.18;58.43
21566;BME280;10943;48.738;9.320;2022-12-18T00:46:53;100042.59;;;-4.28;58.53
21566;BME280;10943;48.738;9.320;2022-12-18T00:49:21;100054.22;;;-4.39;59.10
21566;BME280;10943;48.738;9.320;2022-12-18T00:51:49;100052.44;;;-4.27;58.69
21566;BME280;10943;48.738;9.320;2022-12-18T00:54:17;100057.22;;;-4.55;60.39
21566;BME280;10943;48.738;9.320;2022-12-18T00:56:45;100046.16;;;-4.27;58.80
21566;BME280;10943;48.738;9.320;2022-12-18T00:59:22;100055.69;;;-4.46;59.65
21566;BME280;10943;48.738;9.320;2022-12-18T01:01:50;100050.25;;;-4.22;59.23
21566;BME280;10943;48.738;9.320;2022-12-18T01:04:20;100047.25;;;-4.06;57.84
21566;BME280;10943;48.738;9.320;2022-12-18T01:06:48;100049.25;;;-4.21;58.14
21566;BME280;10943;48.738;9.320;2022-12-18T01:09:15;100047.56;;;-4.46;58.63
21566;BME280;10943;48.738;9.320;2022-12-18T01:11:43;100047.53;;;-4.22;58.16
21566;BME280;10943;48.738;9.320;2022-12-18T01:14:11;100046.41;;;-4.31;58.08
21566;BME280;10943;48.738;9.320;2022-12-18T01:16:38;100040.28;;;-4.45;59.12
21566;BME280;10943;48.738;9.320;2022-12-18T01:19:06;100041.28;;;-4.47;58.40
21566;BME280;10943;48.738;9.320;2022-12-18T01:21:34;100042.94;;;-4.33;58.31
21566;BME280;10943;48.738;9.320;2022-12-18T01:24:05;100045.31;;;-4.28;57.74
21566;BME280;10943;48.738;9.320;2022-12-18T01:26:37;100052.34;;;-4.50;58.44
21566;BME280;10943;48.738;9.320;2022-12-18T01:29:05;100046.28;;;-4.53;58.53
21566;BME280;10943;48.738;9.320;2022-12-18T01:31:37;100053.72;;;-4.68;58.92
21566;BME280;10943;48.738;9.320;2022-12-18T01:34:05;100065.88;;;-4.50;58.37
21566;BME280;10943;48.738;9.320;2022-12-18T01:36:37;100062.88;;;-4.34;57.72
21566;BME280;10943;48.738;9.320;2022-12-18T01:39:15;100057.69;;;-4.37;57.79
21566;BME280;10943;48.738;9.320;2022-12-18T01:41:44;100057.91;;;-4.40;57.96
21566;BME280;10943;48.738;9.320;2022-12-18T01:44:57;100063.06;;;-4.24;57.63
21566;BME280;10943;48.738;9.320;2022-12-18T01:47:45;100052.69;;;-4.30;57.88
21566;BME280;10943;48.738;9.320;2022-12-18T01:50:47;100064.38;;;-4.54;59.28
21566;BME280;10943;48.738;9.320;2022-12-18T01:53:20;100065.47;;;-4.32;58.01
21566;BME280;10943;48.738;9.320;2022-12-18T01:55:54;100069.09;;;-4.44;57.63
21566;BME280;10943;48.738;9.320;2022-12-18T01:58:38;100061.31;;;-4.49;57.56
21566;BME280;10943;48.738;9.320;2022-12-18T02:01:10;100071.50;;;-4.77;58.11
21566;BME280;10943;48.738;9.320;2022-12-18T02:03:41;100058.00;;;-4.53;58.08
21566;BME280;10943;48.738;9.320;2022-12-18T02:09:07;100057.53;;;-4.71;59.05
21566;BME280;10943;48.738;9.320;2022-12-18T02:15:00;100047.50;;;-4.94;59.12
21566;BME280;10943;48.738;9.320;2022-12-18T02:17:43;100060.13;;;-5.58;61.29
21566;BME280;10943;48.738;9.320;2022-12-18T02:20:47;100054.91;;;-5.09;60.60
21566;BME280;10943;48.738;9.320;2022-12-18T02:26:30;100059.78;;;-4.77;59.96
21566;BME280;10943;48.738;9.320;2022-12-18T02:29:06;100059.88;;;-4.66;59.56
21566;BME280;10943;48.738;9.320;2022-12-18T02:31:44;100072.59;;;-4.31;58.04
21566;BME280;10943;48.738;9.320;2022-12-18T02:34:17;100064.75;;;-4.71;59.17
21566;BME280;10943;48.738;9.320;2022-12-18T02:36:48;100072.22;;;-4.75;59.14
21566;BME280;10943;48.738;9.320;2022-12-18T02:39:18;100063.53;;;-4.67;58.70
21566;BME280;10943;48.738;9.320;2022-12-18T02:41:58;100081.00;;;-5.08;60.11
21566;BME280;10943;48.738;9.320;2022-12-18T02:44:26;100080.66;;;-5.68;61.92
21566;BME280;10943;48.738;9.320;2022-12-18T02:46:54;100077.53;;;-5.23;60.56
21566;BME280;10943;48.738;9.320;2022-12-18T02:52:47;100086.06;;;-5.42;60.90
21566;BME280;10943;48.738;9.320;2022-12-18T02:56:00;100094.28;;;-5.31;60.54
21566;BME280;10943;48.738;9.320;2022-12-18T02:58:59;100092.91;;;-5.24;59.94
21566;BME280;10943;48.738;9.320;2022-12-18T03:03:06;100097.78;;;-5.29;59.69
21566;BME280;10943;48.738;9.320;2022-12-18T03:05:30;100080.25;;;-5.36;59.68
21566;BME280;10943;48.738;9.320;2022-12-18T03:08:17;100076.88;;;-5.40;59.51
21566;BME280;10943;48.738;9.320;2022-12-18T03:11:00;100077.88;;;-5.54;59.71
21566;BME280;10943;48.738;9.320;2022-12-18T03:16:28;100079.16;;;-5.34;58.99
21566;BME280;10943;48.738;9.320;2022-12-18T03:19:07;100083.91;;;-5.63;59.81
21566;BME280;10943;48.738;9.320;2022-12-18T03:21:49;100076.78;;;-5.77;59.48
21566;BME280;10943;48.738;9.320;2022-12-18T03:24:21;100084.75;;;-5.88;60.11
21566;BME280;10943;48.738;9.320;2022-12-18T03:26:55;100092.00;;;-5.89;59.77
21566;BME280;10943;48.738;9.320;2022-12-18T03:29:40;100106.09;;;-5.71;58.89
21566;BME280;10943;48.738;9.320;2022-12-18T03:32:28;100116.28;;;-6.15;59.54
21566;BME280;10943;48.738;9.320;2022-12-18T03:35:04;100112.16;;;-6.07;59.31
21566;BME280;10943;48.738;9.320;2022-12-18T03:37:36;100113.38;;;-6.39;60.49
21566;BME280;10943;48.738;9.320;2022-12-18T03:40:05;100114.78;;;-6.33;60.56
21566;BME280;10943;48.738;9.320;2022-12-18T03:42:50;100105.03;;;-6.08;59.58
21566;BME280;10943;48.738;9.320;2022-12-18T03:45:34;100102.03;;;-5.91;59.24
21566;BME280;10943;48.738;9.320;2022-12-18T03:52:11;100090.47;;;-6.19;58.90
21566;BME280;10943;48.738;9.320;2022-12-18T03:54:46;100092.63;;;-6.11;58.57
21566;BME280;10943;48.738;9.320;2022-12-18T03:57:27;100097.22;;;-6.26;58.42
21566;BME280;10943;48.738;9.320;2022-12-18T04:00:12;100105.16;;;-6.37;58.35
21566;BME280;10943;48.738;9.320;2022-12-18T04:02:55;100103.00;;;-6.59;58.52
21566;BME280;10943;48.738;9.320;2022-12-18T04:05:34;100103.34;;;-6.78;59.77
21566;BME280;10943;48.738;9.320;2022-12-18T04:08:03;100097.63;;;-6.59;59.48
21566;BME280;10943;48.738;9.320;2022-12-18T04:10:36;100101.00;;;-6.56;59.13
21566;BME280;10943;48.738;9.320;2022-12-18T04:13:03;100092.44;;;-6.63;58.88
21566;BME280;10943;48.738;9.320;2022-12-18T04:15:35;100093.13;;;-6.73;59.58
21566;BME280;10943;48.738;9.320;2022-12-18T04:18:08;100094.47;;;-6.66;59.42
21566;BME280;10943;48.738;9.320;2022-12-18T04:20:39;100092.78;;;-6.54;58.71
21566;BME280;10943;48.738;9.320;2022-12-18T04:23:07;100092.34;;;-6.61;58.51
21566;BME280;10943;48.738;9.320;2022-12-18T04:25:38;100092.56;;;-6.78;59.20
21566;BME280;10943;48.738;9.320;2022-12-18T04:28:15;100085.28;;;-6.91;59.42
21566;BME280;10943;48.738;9.320;2022-12-18T04:30:43;100092.22;;;-7.01;58.99
21566;BME280;10943;48.738;9.320;2022-12-18T04:33:16;100093.88;;;-7.27;59.74
21566;BME280;10943;48.738;9.320;2022-12-18T04:35:45;100101.66;;;-7.23;59.43
21566;BME280;10943;48.738;9.320;2022-12-18T04:38:13;100112.06;;;-7.02;59.13
21566;BME280;10943;48.738;9.320;2022-12-18T04:40:41;100121.09;;;-7.03;58.50
21566;BME280;10943;48.738;9.320;2022-12-18T04:43:17;100124.38;;;-6.98;58.51
21566;BME280;10943;48.738;9.320;2022-12-18T04:45:44;100123.03;;;-6.91;57.65
21566;BME280;10943;48.738;9.320;2022-12-18T04:48:12;100125.34;;;-7.14;57.83
21566;BME280;10943;48.738;9.320;2022-12-18T04:50:39;100114.44;;;-7.41;58.23
21566;BME280;10943;48.738;9.320;2022-12-18T04:53:07;100124.94;;;-7.51;59.05
21566;BME280;10943;48.738;9.320;2022-12-18T04:55:38;100117.06;;;-7.10;58.12
21566;BME280;10943;48.738;9.320;2022-12-18T04:58:06;100100.53;;;-7.04;57.40
21566;BME280;10943;48.738;9.320;2022-12-18T05:00:33;100104.94;;;-7.32;57.84
21566;BME280;10943;48.738;9.320;2022-12-18T05:03:02;100092.41;;;-7.48;58.01
21566;BME280;10943;48.738;9.320;2022-12-18T05:05:30;100095.97;;;-7.62;58.58
21566;BME280;10943;48.738;9.320;2022-12-18T05:07:57;100085.09;;;-7.74;58.92
21566;BME280;10943;48.738;9.320;2022-12-18T05:10:25;100087.28;;;-7.67;58.80
21566;BME280;10943;48.738;9.320;2022-12-18T05:12:52;100095.44;;;-7.83;59.22
21566;BME280;10943;48.738;9.320;2022-12-18T05:15:32;100091.53;;;-7.77;59.12
21566;BME280;10943;48.738;9.320;2022-12-18T05:18:01;100099.31;;;-7.72;58.24
21566;BME280;10943;48.738;9.320;2022-12-18T05:20:30;100098.38;;;-7.71;57.89
21566;BME280;10943;48.738;9.320;2022-12-18T05:22:57;100105.84;;;-7.76;58.43
21566;BME280;10943;48.738;9.320;2022-12-18T05:25:25;100112.69;;;-7.71;58.21
21566;BME280;10943;48.738;9.320;2022-12-18T05:27:53;100107.06;;;-7.52;57.47
21566;BME280;10943;48.738;9.320;2022-12-18T05:30:21;100106.47;;;-7.57;57.61
21566;BME280;10943;48.738;9.320;2022-12-18T05:32:49;100111.25;;;-7.76;58.28
21566;BME280;10943;48.738;9.320;2022-12-18T05:35:17;100117.75;;;-7.95;58.63
21566;BME280;10943;48.738;9.320;2022-12-18T05:37:45;100111.84;;;-7.71;58.52
21566;BME280;10943;48.738;9.320;2022-12-18T05:40:13;100114.53;;;-7.57;58.14
21566;BME280;10943;48.738;9.320;2022-12-18T05:42:41;100121.06;;;-7.75;58.32
21566;BME280;10943;48.738;9.320;2022-12-18T05:45:08;100120.38;;;-7.79;58.57
21566;BME280;10943;48.738;9.320;2022-12-18T05:47:36;100118.03;;;-7.85;58.18
21566;BME280;10943;48.738;9.320;2022-12-18T05:50:05;100111.59;;;-7.97;58.56
21566;BME280;10943;48.738;9.320;2022-12-18T05:52:33;100120.88;;;-7.72;57.98
21566;BME280;10943;48.738;9.320;2022-12-18T05:55:01;100113.75;;;-7.73;57.77
21566;BME280;10943;48.738;9.320;2022-12-18T05:57:29;100117.00;;;-7.83;57.68
21566;BME280;10943;48.738;9.320;2022-12-18T05:59:57;100111.78;;;-8.00;58.18
21566;BME280;10943;48.738;9.320;2022-12-18T06:02:25;100120.88;;;-7.72;57.47
21566;BME280;10943;48.738;9.320;2022-12-18T06:04:52;100121.53;;;-7.83;57.38
21566;BME280;10943;48.738;9.320;2022-12-18T06:07:20;100114.16;;;-7.96;58.11
21566;BME280;10943;48.738;9.320;2022-12-18T06:09:47;100111.06;;;-7.59;57.34
21566;BME280;10943;48.738;9.320;2022-12-18T06:12:17;100112.22;;;-7.63;57.34
21566;BME280;10943;48.738;9.320;2022-12-18T06:14:45;100113.38;;;-7.67;57.24
21566;BME280;10943;48.738;9.320;2022-12-18T06:17:12;100122.22;;;-7.80;56.98
21566;BME280;10943;48.738;9.320;2022-12-18T06:19:39;100119.91;;;-8.02;57.84
21566;BME280;10943;48.738;9.320;2022-12-18T06:22:07;100122.22;;;-8.10;58.22
21566;BME280;10943;48.738;9.320;2022-12-18T06:24:34;100120.38;;;-8.09;58.78
21566;BME280;10943;48.738;9.320;2022-12-18T06:27:02;100128.31;;;-7.92;58.02
21566;BME280;10943;48.738;9.320;2022-12-18T06:29:29;100109.66;;;-7.95;57.63
21566;BME280;10943;48.738;9.320;2022-12-18T06:31:56;100118.47;;;-7.77;57.60
21566;BME280;10943;48.738;9.320;2022-12-18T06:34:24;100120.47;;;-7.81;57.18
21566;BME280;10943;48.738;9.320;2022-12-18T06:36:52;100122.53;;;-8.00;57.89
21566;BME280;10943;48.738;9.320;2022-12-18T06:39:19;100123.31;;;-8.45;59.00
21566;BME280;10943;48.738;9.320;2022-12-18T06:41:47;100123.19;;;-8.73;59.07
21566;BME280;10943;48.738;9.320;2022-12-18T06:44:14;100143.88;;;-8.43;59.28
21566;BME280;10943;48.738;9.320;2022-12-18T06:46:42;100133.91;;;-7.95;57.19
21566;BME280;10943;48.738;9.320;2022-12-18T06:49:09;100140.00;;;-8.07;56.98
21566;BME280;10943;48.738;9.320;2022-12-18T06:51:37;100140.78;;;-8.05;56.90
21566;BME280;10943;48.738;9.320;2022-12-18T06:54:05;100141.50;;;-8.18;57.23
21566;BME280;10943;48.738;9.320;2022-12-18T06:56:33;100134.06;;;-8.29;57.41
21566;BME280;10943;48.738;9.320;2022-12-18T06:59:01;100133.91;;;-8.41;58.41
21566;BME280;10943;48.738;9.320;2022-12-18T07:01:29;100134.38;;;-8.49;58.84
21566;BME280;10943;48.738;9.320;2022-12-18T07:04:02;100142.59;;;-8.68;59.39
21566;BME280;10943;48.738;9.320;2022-12-18T07:06:36;100145.22;;;-8.67;58.99
21566;BME280;10943;48.738;9.320;2022-12-18T07:09:03;100150.75;;;-8.54;59.15
21566;BME280;10943;48.738;9.320;2022-12-18T07:11:33;100159.22;;;-8.30;58.32
21566;BME280;10943;48.738;9.320;2022-12-18T07:14:00;100164.63;;;-8.77;59.18
21566;BME280;10943;48.738;9.320;2022-12-18T07:16:28;100166.47;;;-8.46;58.87
21566;BME280;10943;48.738;9.320;2022-12-18T07:18:56;100163.97;;;-8.65;59.18
21566;BME280;10943;48.738;9.320;2022-12-18T07:21:25;100171.09;;;-8.18;58.14
21566;BME280;10943;48.738;9.320;2022-12-18T07:23:52;100170.09;;;-7.85;56.54
21566;BME280;10943;48.738;9.320;2022-12-18T07:26:21;100176.31;;;-8.31;57.53
21566;BME280;10943;48.738;9.320;2022-12-18T07:28:49;100184.56;;;-8.18;57.57
21566;BME280;10943;48.738;9.320;2022-12-18T07:31:20;100178.69;;;-7.94;56.58
21566;BME280;10943;48.738;9.320;2022-12-18T07:33:52;100178.88;;;-7.67;55.77
21566;BME280;10943;48.738;9.320;2022-12-18T07:36:20;100178.50;;;-7.60;55.66
21566;BME280;10943;48.738;9.320;2022-12-18T07:38:49;100185.00;;;-7.79;56.36
21566;BME280;10943;48.738;9.320;2022-12-18T07:41:18;100173.81;;;-7.87;55.72
21566;BME280;10943;48.738;9.320;2022-12-18T07:43:46;100184.31;;;-7.83;56.44
21566;BME280;10943;48.738;9.320;2022-12-18T07:46:15;100183.59;;;-7.70;56.20
21566;BME280;10943;48.738;9.320;2022-12-18T07:48:44;100191.28;;;-7.64;55.76
21566;BME280;10943;48.738;9.320;2022-12-18T07:51:16;100191.16;;;-7.47;55.33
21566;BME280;10943;48.738;9.320;2022-12-18T07:53:45;100194.56;;;-7.28;54.91
21566;BME280;10943;48.738;9.320;2022-12-18T07:56:19;100182.16;;;-7.62;54.95
21566;BME280;10943;48.738;9.320;2022-12-18T07:58:58;100185.56;;;-7.88;56.17
21566;BME280;10943;48.738;9.320;2022-12-18T08:01:26;100190.28;;;-7.77;56.38
21566;BME280;10943;48.738;9.320;2022-12-18T08:03:55;100207.50;;;-7.80;56.01
21566;BME280;10943;48.738;9.320;2022-12-18T08:06:23;100200.97;;;-7.76;56.04
21566;BME280;10943;48.738;9.320;2022-12-18T08:08:55;100200.09;;;-7.76;56.11
21566;BME280;10943;48.738;9.320;2022-12-18T08:11:26;100205.41;;;-7.75;55.86
21566;BME280;10943;48.738;9.320;2022-12-18T08:13:55;100205.13;;;-8.17;56.79
21566;BME280;10943;48.738;9.320;2022-12-18T08:16:26;100198.78;;;-8.16;57.28
21566;BME280;10943;48.738;9.320;2022-12-18T08:18:54;100201.09;;;-7.63;55.64
21566;BME280;10943;48.738;9.320;2022-12-18T08:21:29;100197.25;;;-7.59;55.64
21566;BME280;10943;48.738;9.320;2022-12-18T08:24:00;100200.03;;;-7.44;54.87
21566;BME280;10943;48.738;9.320;2022-12-18T08:26:30;100203.78;;;-7.33;55.14
21566;BME280;10943;48.738;9.320;2022-12-18T08:29:00;100197.47;;;-7.17;54.82
21566;BME280;10943;48.738;9.320;2022-12-18T08:31:29;100190.78;;;-7.40;55.09
21566;BME280;10943;48.738;9.320;2022-12-18T08:34:23;100195.28;;;-7.41;55.81
21566;BME280;10943;48.738;9.320;2022-12-18T08:36:50;100193.13;;;-7.05;54.36
21566;BME280;10943;48.738;9.320;2022-12-18T08:39:18;100190.63;;;-6.80;53.60
21566;BME280;10943;48.738;9.320;2022-12-18T08:41:45;100196.41;;;-7.00;54.49
21566;BME280;10943;48.738;9.320;2022-12-18T08:44:36;100180.97;;;-6.98;54.76
21566;BME280;10943;48.738;9.320;2022-12-18T08:47:07;100190.97;;;-6.57;53.25
21566;BME280;10943;48.738;9.320;2022-12-18T08:49:35;100186.19;;;-6.81;54.23
21566;BME280;10943;48.738;9.320;2022-12-18T08:52:03;100182.50;;;-6.51;53.32
21566;BME280;10943;48.738;9.320;2022-12-18T08:54:31;100195.69;;;-6.60;53.69
21566;BME280;10943;48.738;9.320;2022-12-18T08:57:01;100192.47;;;-6.38;53.60
21566;BME280;10943;48.738;9.320;2022-12-18T08:59:29;100195.53;;;-6.16;52.52
21566;BME280;10943;48.738;9.320;2022-12-18T09:01:57;100193.47;;;-6.39;52.62
21566;BME280;10943;48.738;9.320;2022-12-18T09:04:24;100187.06;;;-6.24;52.92
21566;BME280;10943;48.738;9.320;2022-12-18T09:06:55;100183.03;;;-6.31;53.22
21566;BME280;10943;48.738;9.320;2022-12-18T09:09:22;100178.19;;;-6.26;53.40
21566;BME280;10943;48.738;9.320;2022-12-18T09:11:50;100168.00;;;-6.35;53.62
21566;BME280;10943;48.738;9.320;2022-12-18T09:14:18;100172.50;;;-6.21;53.20
21566;BME280;10943;48.738;9.320;2022-12-18T09:16:49;100165.88;;;-6.30;54.05
21566;BME280;10943;48.738;9.320;2022-12-18T09:19:17;100166.47;;;-5.72;53.16
21566;BME280;10943;48.738;9.320;2022-12-18T09:21:45;100175.53;;;-5.07;51.51
21566;BME280;10943;48.738;9.320;2022-12-18T09:24:15;100167.84;;;-4.87;50.71
21566;BME280;10943;48.738;9.320;2022-12-18T09:26:54;100158.53;;;-4.83;50.94
21566;BME280;10943;48.738;9.320;2022-12-18T09:29:27;100163.03;;;-3.61;49.56
21566;BME280;10943;48.738;9.320;2022-12-18T09:32:15;100158.09;;;-0.90;43.35
21566;BME280;10943;48.738;9.320;2022-12-18T09:34:48;100158.53;;;1.52;39.98
21566;BME280;10943;48.738;9.320;2022-12-18T09:37:16;100157.56;;;3.76;37.22
21566;BME280;10943;48.738;9.320;2022-12-18T09:39:44;100152.22;;;5.41;33.67
21566;BME280;10943;48.738;9.320;2022-12-18T09:42:21;100157.41;;;6.24;29.62
21566;BME280;10943;48.738;9.320;2022-12-18T09:44:53;100151.44;;;5.72;31.73
21566;BME280;10943;48.738;9.320;2022-12-18T09:47:39;100154.84;;;7.15;30.82
21566;BME280;10943;48.738;9.320;2022-12-18T09:50:39;100146.31;;;8.00;28.92
21566;BME280;10943;48.738;9.320;2022-12-18T09:53:19;100144.78;;;8.34;28.45
21566;BME280;10943;48.738;9.320;2022-12-18T09:55:52;100149.78;;;8.82;28.63
21566;BME280;10943;48.738;9.320;2022-12-18T09:58:40;100146.34;;;9.01;25.70
21566;BME280;10943;48.738;9.320;2022-12-18T10:01:21;100141.00;;;9.50;27.22
21566;BME280;10943;48.738;9.320;2022-12-18T10:03:52;100137.81;;;9.88;25.81
21566;BME280;10943;48.738;9.320;2022-12-18T10:06:29;100135.75;;;9.33;27.28
21566;BME280;10943;48.738;9.320;2022-12-18T10:12:24;100137.66;;;10.58;24.78
21566;BME280;10943;48.738;9.320;2022-12-18T10:15:12;100131.94;;;10.93;24.53
21566;BME280;10943;48.738;9.320;2022-12-18T10:18:18;100143.66;;;10.62;24.82
21566;BME280;10943;48.738;9.320;2022-12-18T10:21:00;100132.16;;;10.98;25.52
21566;BME280;10943;48.738;9.320;2022-12-18T10:24:13;100138.38;;;11.34;23.98
21566;BME280;10943;48.738;9.320;2022-12-18T10:26:46;100144.47;;;11.96;23.55
21566;BME280;10943;48.738;9.320;2022-12-18T10:29:16;100136.34;;;11.81;22.96
21566;BME280;10943;48.738;9.320;2022-12-18T10:31:44;100140.59;;;11.91;22.84
21566;BME280;10943;48.738;9.320;2022-12-18T10:34:12;100145.81;;;10.18;24.11
21566;BME280;10943;48.738;9.320;2022-12-18T10:36:41;100143.75;;;9.21;25.12
21566;BME280;10943;48.738;9.320;2022-12-18T10:39:23;100136.31;;;8.72;26.25
21566;BME280;10943;48.738;9.320;2022-12-18T10:42:14;100139.06;;;8.72;27.65
21566;BME280;10943;48.738;9.320;2022-12-18T10:44:44;100139.06;;;9.22;26.42
21566;BME280;10943;48.738;9.320;2022-12-18T10:47:18;100142.09;;;9.97;25.63
21566;BME280;10943;48.738;9.320;2022-12-18T10:49:51;100152.19;;;9.70;25.70
21566;BME280;10943;48.738;9.320;2022-12-18T10:52:26;100154.75;;;9.71;25.81
21566;BME280;10943;48.738;9.320;2022-12-18T10:55:03;100150.00;;;8.43;27.53
21566;BME280;10943;48.738;9.320;2022-12-18T10:57:37;100140.31;;;8.33;27.60
21566;BME280;10943;48.738;9.320;2022-12-18T11:00:35;100144.97;;;7.96;29.46
21566;BME280;10943;48.738;9.320;2022-12-18T11:03:31;100143.50;;;8.15;28.73
21566;BME280;10943;48.738;9.320;2022-12-18T11:06:21;100147.13;;;8.95;27.75
21566;BME280;10943;48.738;9.320;2022-12-18T11:09:05;100136.16;;;8.80;27.63
21566;BME280;10943;48.738;9.320;2022-12-18T11:11:55;100134.84;;;8.76;28.13
21566;BME280;10943;48.738;9.320;2022-12-18T11:14:46;100133.19;;;8.23;28.77
21566;BME280;10943;48.738;9.320;2022-12-18T11:17:33;100114.63;;;8.75;28.55
21566;BME280;10943;48.738;9.320;2022-12-18T11:20:06;100120.13;;;9.19;27.82
21566;BME280;10943;48.738;9.320;2022-12-18T11:23:11;100119.53;;;10.00;28.30
21566;BME280;10943;48.738;9.320;2022-12-18T11:25:51;100101.63;;;10.71;26.35
21566;BME280;10943;48.738;9.320;2022-12-18T11:28:42;100095.06;;;9.62;26.91
21566;BME280;10943;48.738;9.320;2022-12-18T11:34:02;100085.50;;;10.20;27.30
21566;BME280;10943;48.738;9.320;2022-12-18T11:36:54;100079.16;;;10.33;26.84
21566;BME280;10943;48.738;9.320;2022-12-18T11:39:41;100084.34;;;8.46;29.94
21566;BME280;10943;48.738;9.320;2022-12-18T11:42:25;100088.47;;;9.00;28.98
21566;BME280;10943;48.738;9.320;2022-12-18T11:45:27;100080.81;;;10.20;28.38
21566;BME280;10943;48.738;9.320;2022-12-18T11:48:36;100082.75;;;9.78;28.98
21566;BME280;10943;48.738;9.320;2022-12-18T11:51:32;100078.91;;;9.02;29.11
21566;BME280;10943;48.738;9.320;2022-12-18T11:54:14;100073.06;;;9.96;27.51
21566;BME280;10943;48.738;9.320;2022-12-18T11:57:40;100071.81;;;10.05;27.83
21566;BME280;10943;48.738;9.320;2022-12-18T12:00:18;100068.22;;;10.11;28.77
21566;BME280;10943;48.738;9.320;2022-12-18T12:06:10;100063.28;;;10.06;28.60
21566;BME280;10943;48.738;9.320;2022-12-18T12:16:25;100042.16;;;9.99;28.49
21566;BME280;10943;48.738;9.320;2022-12-18T12:21:59;100041.69;;;8.33;31.46
21566;BME280;10943;48.738;9.320;2022-12-18T12:27:50;100028.53;;;7.10;33.94
21566;BME280;10943;48.738;9.320;2022-12-18T12:36:28;100032.09;;;7.71;33.61
21566;BME280;10943;48.738;9.320;2022-12-18T12:39:14;100025.59;;;7.27;34.29
21566;BME280;10943;48.738;9.320;2022-12-18T12:41:46;100020.47;;;7.24;34.56
21566;BME280;10943;48.738;9.320;2022-12-18T12:44:45;100026.25;;;7.29;34.22
21566;BME280;10943;48.738;9.320;2022-12-18T12:47:35;100026.59;;;7.56;35.15
21566;BME280;10943;48.738;9.320;2022-12-18T12:50:16;100017.94;;;7.44;34.45
21566;BME280;10943;48.738;9.320;2022-12-18T12:52:55;100026.34;;;7.21;34.99
21566;BME280;10943;48.738;9.320;2022-12-18T12:55:51;100017.69;;;7.09;35.30
21566;BME280;10943;48.738;9.320;2022-12-18T12:58:39;100030.78;;;7.07;35.51
21566;BME280;10943;48.738;9.320;2022-12-18T13:04:47;100038.78;;;6.87;35.97
21566;BME280;10943;48.738;9.320;2022-12-18T13:08:12;100039.03;;;6.62;36.65
21566;BME280;10943;48.738;9.320;2022-12-18T13:10:41;100042.19;;;6.36;37.29
21566;BME280;10943;48.738;9.320;2022-12-18T13:13:15;100056.19;;;6.26;37.99
21566;BME280;10943;48.738;9.320;2022-12-18T13:16:05;100042.94;;;6.21;38.60
21566;BME280;10943;48.738;9.320;2022-12-18T13:18:35;100042.34;;;6.34;38.19
21566;BME280;10943;48.738;9.320;2022-12-18T13:23:48;100047.81;;;5.88;38.59
21566;BME280;10943;48.738;9.320;2022-12-18T13:39:58;100032.66;;;5.21;41.12
21566;BME280;10943;48.738;9.320;2022-12-18T13:42:40;100031.72;;;5.37;40.91
21566;BME280;10943;48.738;9.320;2022-12-18T13:45:45;100031.28;;;5.17;41.62
21566;BME280;10943;48.738;9.320;2022-12-18T13:48:22;100028.53;;;5.17;41.46
21566;BME280;10943;48.738;9.320;2022-12-18T13:51:06;100023.28;;;4.99;41.53
21566;BME280;10943;48.738;9.320;2022-12-18T13:53:50;100022.78;;;4.78;41.96
21566;BME280;10943;48.738;9.320;2022-12-18T13:56:30;100014.06;;;4.67;42.56
21566;BME280;10943;48.738;9.320;2022-12-18T14:01:58;100026.59;;;4.69;42.14
21566;BME280;10943;48.738;9.320;2022-12-18T14:04:33;100026.13;;;4.49;42.75
21566;BME280;10943;48.738;9.320;2022-12-18T14:07:15;100026.97;;;4.41;43.09
21566;BME280;10943;48.738;9.320;2022-12-18T14:09:56;100024.22;;;4.25;43.53
21566;BME280;10943;48.738;9.320;2022-12-18T14:12:50;100024.22;;;4.25;43.41
21566;BME280;10943;48.738;9.320;2022-12-18T14:18:39;100031.38;;;3.85;43.81
21566;BME280;10943;48.738;9.320;2022-12-18T14:21:27;100034.84;;;3.95;43.58
21566;BME280;10943;48.738;9.320;2022-12-18T14:24:18;100031.19;;;3.27;45.57
21566;BME280;10943;48.738;9.320;2022-12-18T14:26:50;100029.75;;;3.06;46.27
21566;BME280;10943;48.738;9.320;2022-12-18T14:29:30;100031.16;;;3.10;46.96
21566;BME280;10943;48.738;9.320;2022-12-18T14:32:19;100029.19;;;2.68;47.76
21566;BME280;10943;48.738;9.320;2022-12-18T14:34:53;100029.81;;;2.62;48.88
21566;BME280;10943;48.738;9.320;2022-12-18T14:37:25;100036.34;;;2.61;48.77
21566;BME280;10943;48.738;9.320;2022-12-18T14:40:02;100044.84;;;2.58;49.32
21566;BME280;10943;48.738;9.320;2022-12-18T14:42:37;100046.28;;;2.44;49.34
21566;BME280;10943;48.738;9.320;2022-12-18T14:45:42;100035.56;;;2.51;49.49
21566;BME280;10943;48.738;9.320;2022-12-18T14:50:42;100042.22;;;2.48;49.73
21566;BME280;10943;48.738;9.320;2022-12-18T14:53:33;100047.09;;;2.36;50.05